Time;durP1;ratioP1;P1;durP2;ratioP2;P2;SDS_P1;SDS_P2;PMS_P1;PMS_P2;Temp;Humidity;BMP_temperature;BMP_pressure;BME280_temperature;BME280_humidity;BME280_pressure;Samples;Min_cycle;Max_cycle;Signal;HPM_P1;HPM_P2
2023/01/21 00:00:32;;;;;;;8.27;4.07;;;1.40;99.90;;;;;;5097666;28;20054;-66
2023/01/21 00:03:00;;;;;;;6.00;4.32;;;1.40;99.90;;;;;;5094023;28;20516;-66
2023/01/21 00:05:27;;;;;;;5.70;3.85;;;1.40;99.90;;;;;;5106219;28;20059;-68
2023/01/21 00:07:54;;;;;;;4.80;4.28;;;1.40;99.90;;;;;;5111721;28;20047;-67
2023/01/21 00:10:22;;;;;;;6.50;4.28;;;1.40;99.90;;;;;;5112862;28;20129;-67
2023/01/21 00:12:51;;;;;;;6.22;4.18;;;1.40;99.90;;;;;;5111925;28;20123;-67
2023/01/21 00:15:18;;;;;;;5.15;3.97;;;1.30;99.90;;;;;;5102748;28;20085;-67
2023/01/21 00:17:45;;;;;;;9.88;3.75;;;1.30;99.90;;;;;;5107051;28;20052;-67
2023/01/21 00:20:12;;;;;;;6.57;3.83;;;1.30;99.90;;;;;;5113894;28;20499;-67
2023/01/21 00:22:40;;;;;;;5.32;4.20;;;1.30;99.90;;;;;;5107370;28;20094;-67
2023/01/21 00:25:08;;;;;;;4.97;3.70;;;1.30;99.90;;;;;;5093315;28;20040;-67
2023/01/21 00:27:36;;;;;;;3.90;3.50;;;1.30;99.90;;;;;;5113222;28;20044;-67
2023/01/21 00:30:06;;;;;;;6.13;4.25;;;1.20;99.90;;;;;;5111917;28;20040;-67
2023/01/21 00:32:33;;;;;;;6.00;4.13;;;1.20;99.90;;;;;;5098596;28;20420;-66
2023/01/21 00:35:01;;;;;;;4.60;3.83;;;1.10;99.90;;;;;;5102169;28;20523;-66
2023/01/21 00:37:30;;;;;;;4.30;3.90;;;1.10;99.90;;;;;;5112382;28;20047;-67
2023/01/21 00:39:57;;;;;;;6.03;3.40;;;1.10;99.90;;;;;;5107197;27;20097;-67
2023/01/21 00:42:26;;;;;;;5.85;4.05;;;1.10;99.90;;;;;;5093539;28;20139;-66
2023/01/21 00:44:56;;;;;;;6.75;3.67;;;1.00;99.90;;;;;;5100867;28;20044;-67
2023/01/21 00:47:25;;;;;;;6.43;4.78;;;1.00;99.90;;;;;;5103247;28;20048;-66
2023/01/21 00:49:52;;;;;;;5.20;4.03;;;0.90;99.90;;;;;;5105994;28;20047;-67
2023/01/21 00:52:19;;;;;;;5.38;4.03;;;0.80;99.90;;;;;;5112175;28;20450;-67
2023/01/21 00:54:47;;;;;;;4.13;3.67;;;0.90;99.90;;;;;;5108540;28;20503;-67
2023/01/21 00:57:15;;;;;;;7.80;4.35;;;0.90;99.90;;;;;;5111948;28;20086;-66
2023/01/21 00:59:42;;;;;;;7.95;4.70;;;0.90;99.90;;;;;;5109987;28;20040;-67
2023/01/21 01:02:10;;;;;;;4.88;3.88;;;0.80;99.90;;;;;;5111205;28;20097;-65
2023/01/21 01:04:38;;;;;;;6.72;4.03;;;0.70;99.90;;;;;;5111090;28;20046;-66
2023/01/21 01:07:06;;;;;;;5.10;4.18;;;0.70;99.90;;;;;;5108722;28;20078;-66
2023/01/21 01:09:33;;;;;;;4.88;3.65;;;0.70;99.90;;;;;;5111765;28;20043;-66
2023/01/21 01:12:00;;;;;;;5.20;3.65;;;0.70;99.90;;;;;;5110641;28;20052;-66
2023/01/21 01:14:27;;;;;;;3.95;3.35;;;0.70;99.90;;;;;;5112081;28;20043;-66
2023/01/21 01:16:55;;;;;;;3.72;2.92;;;0.70;99.90;;;;;;5101905;28;20142;-66
2023/01/21 01:19:22;;;;;;;4.18;3.10;;;0.70;99.90;;;;;;5109905;28;20055;-67
2023/01/21 01:21:51;;;;;;;3.88;2.85;;;0.70;99.90;;;;;;5105044;28;20076;-67
2023/01/21 01:24:18;;;;;;;3.25;2.42;;;0.80;99.90;;;;;;5091437;28;20051;-68
2023/01/21 01:26:45;;;;;;;3.10;2.55;;;0.70;99.90;;;;;;5092255;28;20084;-67
2023/01/21 01:29:13;;;;;;;3.85;2.67;;;0.70;99.90;;;;;;5094321;28;20529;-67
2023/01/21 01:31:42;;;;;;;3.22;2.40;;;0.70;99.90;;;;;;5107536;28;20082;-67
2023/01/21 01:34:09;;;;;;;3.78;2.70;;;0.70;99.90;;;;;;5110241;28;20043;-67
2023/01/21 01:36:37;;;;;;;2.50;2.30;;;0.70;99.90;;;;;;5112222;28;20081;-67
2023/01/21 01:39:06;;;;;;;2.90;2.47;;;0.70;99.90;;;;;;5111369;28;20044;-66
2023/01/21 01:41:34;;;;;;;2.58;2.28;;;0.60;99.90;;;;;;5112286;28;20048;-67
2023/01/21 01:44:04;;;;;;;2.42;2.20;;;0.60;99.90;;;;;;5110339;28;20530;-67
2023/01/21 01:46:34;;;;;;;4.15;2.20;;;0.50;99.90;;;;;;5110840;28;20047;-67
2023/01/21 01:49:08;;;;;;;3.10;2.22;;;0.50;99.90;;;;;;5110933;28;20514;-66
2023/01/21 01:51:44;;;;;;;2.55;1.95;;;0.40;99.90;;;;;;5110753;28;20051;-67
2023/01/21 01:54:18;;;;;;;3.70;2.45;;;0.40;99.90;;;;;;5109440;28;20048;-67
2023/01/21 01:56:49;;;;;;;2.00;1.88;;;0.30;99.90;;;;;;5110561;28;20083;-67
2023/01/21 01:59:17;;;;;;;3.25;1.88;;;0.20;99.90;;;;;;5111621;28;20052;-67
2023/01/21 02:01:44;;;;;;;2.83;2.53;;;0.10;99.90;;;;;;5093568;28;20056;-66
2023/01/21 02:04:17;;;;;;;2.15;1.95;;;0.00;99.90;;;;;;5084950;28;20081;-66
2023/01/21 02:06:47;;;;;;;2.10;1.90;;;0.00;99.90;;;;;;5101646;28;20047;-66
2023/01/21 02:09:15;;;;;;;2.17;1.98;;;0.00;99.90;;;;;;5108577;28;20419;-66
2023/01/21 02:11:43;;;;;;;3.17;1.90;;;0.00;99.90;;;;;;5103093;28;20593;-66
2023/01/21 02:14:11;;;;;;;2.35;2.15;;;-0.10;99.90;;;;;;5108118;28;20108;-66
2023/01/21 02:16:58;;;;;;;2.08;1.88;;;-0.20;99.90;;;;;;5104567;28;20075;-66
2023/01/21 02:20:06;;;;;;;1.83;1.73;;;-0.20;99.90;;;;;;5109948;28;20079;-66
2023/01/21 02:22:41;;;;;;;1.58;1.48;;;-0.20;99.90;;;;;;5082696;28;20093;-67
2023/01/21 02:25:56;;;;;;;2.30;1.98;;;-0.20;99.90;;;;;;5106288;28;20126;-67
2023/01/21 02:29:13;;;;;;;1.85;1.75;;;-0.20;99.90;;;;;;5107250;28;20032;-66
2023/01/21 02:32:28;;;;;;;1.73;1.60;;;-0.20;99.90;;;;;;5095518;28;20054;-66
2023/01/21 02:35:03;;;;;;;2.42;1.77;;;-0.10;99.90;;;;;;5097658;28;20142;-67
2023/01/21 02:37:39;;;;;;;1.63;1.52;;;-0.20;99.90;;;;;;5111479;28;20059;-66
2023/01/21 02:40:14;;;;;;;1.75;1.65;;;-0.20;99.90;;;;;;5099586;28;20109;-67
2023/01/21 02:42:46;;;;;;;2.13;1.65;;;-0.20;99.90;;;;;;5096020;28;20217;-67
2023/01/21 02:45:23;;;;;;;2.10;1.80;;;-0.20;99.90;;;;;;5111101;28;20039;-66
2023/01/21 02:48:04;;;;;;;2.17;1.98;;;-0.20;99.90;;;;;;5110093;28;20142;-67
2023/01/21 02:50:36;;;;;;;3.20;2.05;;;-0.20;99.90;;;;;;5095032;28;20048;-66
2023/01/21 02:53:05;;;;;;;2.97;1.75;;;-0.20;99.90;;;;;;5108616;28;20171;-67
2023/01/21 02:55:36;;;;;;;3.08;2.50;;;-0.20;99.90;;;;;;5108961;28;20044;-68
2023/01/21 02:58:08;;;;;;;3.63;3.33;;;-0.20;99.90;;;;;;5107964;28;20093;-65
2023/01/21 03:01:15;;;;;;;3.47;3.17;;;-0.30;99.90;;;;;;5109969;28;20068;-67
2023/01/21 03:04:07;;;;;;;3.92;3.55;;;-0.30;99.90;;;;;;5098154;28;20079;-65
2023/01/21 03:06:49;;;;;;;5.78;4.25;;;-0.40;99.90;;;;;;5108436;28;20143;-65
2023/01/21 03:09:22;;;;;;;4.85;4.28;;;-0.40;99.90;;;;;;5102422;28;20075;-65
2023/01/21 03:12:02;;;;;;;4.82;4.40;;;-0.40;99.90;;;;;;5107373;28;20052;-65
2023/01/21 03:17:33;;;;;;;5.75;4.28;;;-0.30;99.90;;;;;;5109967;28;20539;-66
2023/01/21 03:20:09;;;;;;;5.38;4.88;;;-0.30;99.90;;;;;;5108358;28;20094;-66
2023/01/21 03:22:39;;;;;;;6.25;4.85;;;-0.30;99.90;;;;;;5108030;28;20491;-66
2023/01/21 03:25:09;;;;;;;5.45;4.95;;;-0.30;99.90;;;;;;5107408;28;20056;-66
2023/01/21 03:27:39;;;;;;;6.00;5.28;;;-0.30;99.90;;;;;;5109239;28;20083;-66
2023/01/21 03:30:15;;;;;;;7.43;5.80;;;-0.30;99.90;;;;;;5108530;28;20138;-65
2023/01/21 03:32:47;;;;;;;5.65;4.80;;;-0.30;99.90;;;;;;5105104;28;20048;-65
2023/01/21 03:35:19;;;;;;;6.10;4.73;;;-0.30;99.90;;;;;;5106600;28;20051;-66
2023/01/21 03:37:55;;;;;;;5.10;4.70;;;-0.30;99.90;;;;;;5110868;28;20134;-66
2023/01/21 03:40:26;;;;;;;4.53;4.13;;;-0.30;99.90;;;;;;5105440;28;20490;-66
2023/01/21 03:42:55;;;;;;;4.90;4.50;;;-0.30;99.90;;;;;;5104307;28;20071;-66
2023/01/21 03:45:35;;;;;;;5.20;4.20;;;-0.30;99.90;;;;;;5111816;28;20063;-65
2023/01/21 03:48:13;;;;;;;4.57;4.18;;;-0.30;99.90;;;;;;5112796;28;20146;-66
2023/01/21 03:50:46;;;;;;;5.05;4.53;;;-0.30;99.90;;;;;;5114007;28;20079;-66
2023/01/21 03:53:14;;;;;;;5.85;4.60;;;-0.30;99.90;;;;;;5107713;28;20142;-67
2023/01/21 03:55:42;;;;;;;9.45;5.63;;;-0.30;99.90;;;;;;5110894;28;20044;-67
2023/01/21 03:58:09;;;;;;;11.63;6.63;;;-0.30;99.90;;;;;;5112196;28;20043;-66
2023/01/21 04:00:36;;;;;;;10.88;6.75;;;-0.30;99.90;;;;;;5110412;28;20058;-66
2023/01/21 04:03:04;;;;;;;9.27;6.18;;;-0.30;99.90;;;;;;5102113;28;20056;-67
2023/01/21 04:05:31;;;;;;;7.10;5.32;;;-0.40;99.90;;;;;;5109406;28;20031;-67
2023/01/21 04:07:59;;;;;;;8.15;5.50;;;-0.40;99.90;;;;;;5113517;28;20483;-67
2023/01/21 04:10:28;;;;;;;10.88;5.60;;;-0.40;99.90;;;;;;5102969;28;20036;-66
2023/01/21 04:12:55;;;;;;;5.50;4.95;;;-0.50;99.90;;;;;;5109372;28;20096;-67
2023/01/21 04:15:22;;;;;;;6.38;4.68;;;-0.40;99.90;;;;;;5111235;28;20054;-66
2023/01/21 04:17:49;;;;;;;6.20;4.40;;;-0.50;99.90;;;;;;5107758;28;20126;-67
2023/01/21 04:20:18;;;;;;;6.15;4.35;;;-0.50;99.90;;;;;;5109125;28;20126;-67
2023/01/21 04:22:46;;;;;;;5.38;4.10;;;-0.50;99.90;;;;;;5110573;28;23036;-67
2023/01/21 04:25:13;;;;;;;8.60;4.25;;;-0.40;99.90;;;;;;5111481;28;20036;-66
2023/01/21 04:27:48;;;;;;;6.35;4.30;;;-0.40;99.90;;;;;;5095532;28;20055;-66
2023/01/21 04:30:17;;;;;;;9.30;4.40;;;-0.40;99.90;;;;;;5111243;28;20427;-66
2023/01/21 04:32:45;;;;;;;6.15;3.92;;;-0.40;99.90;;;;;;5113177;28;20377;-67
2023/01/21 04:35:12;;;;;;;7.60;4.55;;;-0.40;99.90;;;;;;5112139;28;20055;-67
2023/01/21 04:37:40;;;;;;;7.90;4.45;;;-0.40;99.90;;;;;;5113693;27;20388;-68
2023/01/21 04:40:11;;;;;;;6.28;3.67;;;-0.40;99.90;;;;;;5112409;28;20062;-67
2023/01/21 04:42:43;;;;;;;7.65;3.80;;;-0.40;99.90;;;;;;5109951;28;20051;-69
2023/01/21 04:45:11;;;;;;;6.68;4.22;;;-0.50;99.90;;;;;;5100899;28;20059;-66
2023/01/21 04:47:46;;;;;;;4.53;3.67;;;-0.50;99.90;;;;;;5106598;27;20435;-75
2023/01/21 04:50:16;;;;;;;4.93;3.38;;;-0.50;99.90;;;;;;5103826;27;20759;-71
2023/01/21 04:52:44;;;;;;;6.25;3.30;;;-0.50;99.90;;;;;;5100583;28;20570;-69
2023/01/21 04:55:12;;;;;;;3.45;3.00;;;-0.60;99.90;;;;;;5102885;28;20401;-70
2023/01/21 04:57:42;;;;;;;5.97;4.10;;;-0.60;99.90;;;;;;5104771;27;20035;-70
2023/01/21 05:00:15;;;;;;;6.72;4.40;;;-0.60;99.90;;;;;;5104130;28;20416;-71
2023/01/21 05:02:42;;;;;;;8.10;4.68;;;-0.70;99.90;;;;;;5101800;28;20051;-70
2023/01/21 05:05:10;;;;;;;8.18;4.65;;;-0.70;99.90;;;;;;5101354;28;20063;-75
2023/01/21 05:07:37;;;;;;;5.50;4.25;;;-0.70;99.90;;;;;;5098743;28;20049;-71
2023/01/21 05:10:05;;;;;;;6.03;4.03;;;-0.70;99.90;;;;;;5101666;27;20659;-66
2023/01/21 05:12:33;;;;;;;9.88;4.85;;;-0.80;99.90;;;;;;5103097;28;20078;-67
2023/01/21 05:15:01;;;;;;;11.65;4.63;;;-0.70;99.90;;;;;;5102694;27;20514;-67
2023/01/21 05:17:30;;;;;;;9.18;4.85;;;-0.80;99.90;;;;;;5103911;28;20515;-68
2023/01/21 05:19:57;;;;;;;8.10;4.38;;;-0.80;99.90;;;;;;5107615;28;20054;-74
2023/01/21 05:22:25;;;;;;;7.18;4.50;;;-0.70;99.90;;;;;;5088101;28;20439;-74
2023/01/21 05:24:52;;;;;;;7.20;3.92;;;-0.80;99.90;;;;;;5098317;28;20036;-73
2023/01/21 05:27:20;;;;;;;9.55;5.38;;;-0.80;99.90;;;;;;5098414;28;20043;-74
2023/01/21 05:29:48;;;;;;;12.90;6.40;;;-0.80;99.90;;;;;;5109005;28;20047;-73
2023/01/21 05:32:16;;;;;;;9.73;5.53;;;-0.80;99.90;;;;;;5110326;28;20064;-74
2023/01/21 05:34:44;;;;;;;7.75;4.65;;;-0.80;99.90;;;;;;5110565;28;20423;-74
2023/01/21 05:37:12;;;;;;;12.70;6.18;;;-0.80;99.90;;;;;;5108332;28;20059;-72
2023/01/21 05:39:39;;;;;;;12.05;6.00;;;-0.80;99.90;;;;;;5103125;28;20047;-73
2023/01/21 05:42:07;;;;;;;10.70;7.55;;;-0.80;99.90;;;;;;5088206;28;20044;-73
2023/01/21 05:44:34;;;;;;;13.27;7.28;;;-0.80;99.90;;;;;;5104293;28;20055;-74
2023/01/21 05:47:01;;;;;;;11.85;6.18;;;-0.80;99.90;;;;;;5101509;28;20044;-75
2023/01/21 05:49:30;;;;;;;11.23;6.95;;;-0.80;99.90;;;;;;5096588;28;20051;-74
2023/01/21 05:51:58;;;;;;;10.50;6.20;;;-0.80;99.90;;;;;;5090477;28;20532;-74
2023/01/21 05:54:25;;;;;;;12.38;5.95;;;-0.80;99.90;;;;;;5097747;28;20047;-74
2023/01/21 05:56:53;;;;;;;8.60;5.75;;;-0.80;99.90;;;;;;5103097;28;20059;-74
2023/01/21 05:59:20;;;;;;;13.73;5.22;;;-0.90;99.90;;;;;;5104899;27;20039;-69
2023/01/21 06:01:48;;;;;;;6.95;4.68;;;-0.80;99.90;;;;;;5108753;27;20047;-69
2023/01/21 06:04:19;;;;;;;8.23;4.80;;;-0.80;99.90;;;;;;5093425;28;20415;-69
2023/01/21 06:06:48;;;;;;;7.65;4.32;;;-0.80;99.90;;;;;;5084666;27;20043;-68
2023/01/21 06:09:16;;;;;;;7.57;5.07;;;-0.70;99.90;;;;;;5108389;28;20102;-70
2023/01/21 06:11:46;;;;;;;9.55;5.93;;;-0.70;99.90;;;;;;5111714;28;20427;-67
2023/01/21 06:14:17;;;;;;;7.85;4.72;;;-0.70;99.90;;;;;;5116768;27;20043;-75
2023/01/21 06:16:45;;;;;;;9.43;4.47;;;-0.70;99.90;;;;;;5127771;27;20047;-69
2023/01/21 06:19:15;;;;;;;6.65;4.90;;;-0.70;99.90;;;;;;5131846;27;20407;-69
2023/01/21 06:21:42;;;;;;;6.20;4.80;;;-0.70;99.90;;;;;;5107097;28;20092;-68
2023/01/21 06:24:11;;;;;;;10.55;5.50;;;-0.60;99.90;;;;;;5101754;28;20039;-70
2023/01/21 06:26:39;;;;;;;7.78;4.68;;;-0.60;99.90;;;;;;5103450;28;20047;-68
2023/01/21 06:29:06;;;;;;;7.63;4.80;;;-0.60;99.90;;;;;;5109498;28;20040;-67
2023/01/21 06:31:33;;;;;;;8.02;4.18;;;-0.60;99.90;;;;;;5110326;28;20039;-68
2023/01/21 06:34:00;;;;;;;7.18;4.90;;;-0.70;99.90;;;;;;5103487;28;20499;-69
2023/01/21 06:36:28;;;;;;;9.80;5.53;;;-0.60;99.90;;;;;;5110742;28;20445;-67
2023/01/21 06:38:55;;;;;;;6.85;3.90;;;-0.60;99.90;;;;;;5111487;28;20050;-69
2023/01/21 06:41:23;;;;;;;6.35;3.30;;;-0.60;99.90;;;;;;5111537;28;20047;-67
2023/01/21 06:43:51;;;;;;;15.43;5.60;;;-0.60;99.90;;;;;;5111768;28;20046;-69
2023/01/21 06:46:18;;;;;;;7.18;3.80;;;-0.60;99.90;;;;;;5110512;28;20051;-68
2023/01/21 06:48:46;;;;;;;5.80;3.75;;;-0.50;99.90;;;;;;5093177;28;20618;-68
2023/01/21 06:51:13;;;;;;;6.35;4.70;;;-0.50;99.90;;;;;;5073018;28;20051;-68
2023/01/21 06:53:40;;;;;;;5.03;4.40;;;-0.50;99.90;;;;;;5092163;28;20052;-68
2023/01/21 06:56:08;;;;;;;6.95;4.47;;;-0.50;99.90;;;;;;5107269;28;20047;-68
2023/01/21 06:58:38;;;;;;;6.93;4.30;;;-0.50;99.90;;;;;;5083805;28;20032;-69
2023/01/21 07:01:06;;;;;;;16.00;4.80;;;-0.50;99.90;;;;;;5112919;28;20134;-69
2023/01/21 07:03:33;;;;;;;11.77;6.70;;;-0.40;99.90;;;;;;5100318;28;20039;-68
2023/01/21 07:06:00;;;;;;;17.42;6.80;;;-0.40;99.90;;;;;;5110627;28;20881;-68
2023/01/21 07:08:28;;;;;;;10.82;6.82;;;-0.40;99.90;;;;;;5105136;28;20039;-68
2023/01/21 07:10:55;;;;;;;12.57;6.70;;;-0.40;99.90;;;;;;5105990;28;20486;-67
2023/01/21 07:13:24;;;;;;;10.27;5.82;;;-0.40;99.90;;;;;;5100304;28;20044;-69
2023/01/21 07:15:54;;;;;;;9.38;4.85;;;-0.50;99.90;;;;;;5111416;28;20488;-68
2023/01/21 07:18:23;;;;;;;9.52;4.22;;;-0.40;99.90;;;;;;5108926;28;20131;-68
2023/01/21 07:20:54;;;;;;;5.50;4.30;;;-0.40;99.90;;;;;;5083686;28;20073;-68
2023/01/21 07:23:23;;;;;;;6.90;3.92;;;-0.40;99.90;;;;;;5104360;28;20047;-67
2023/01/21 07:25:51;;;;;;;9.10;4.03;;;-0.30;99.90;;;;;;5096131;28;20520;-67
2023/01/21 07:28:18;;;;;;;6.63;4.10;;;-0.30;99.90;;;;;;5105514;27;20040;-69
2023/01/21 07:30:46;;;;;;;5.75;3.67;;;-0.30;99.90;;;;;;5081891;28;20039;-68
2023/01/21 07:33:16;;;;;;;7.88;3.70;;;-0.30;99.90;;;;;;5103487;27;20105;-69
2023/01/21 07:35:44;;;;;;;6.63;3.88;;;-0.30;99.90;;;;;;5104004;28;20091;-69
2023/01/21 07:38:12;;;;;;;6.32;4.13;;;-0.30;99.90;;;;;;5109845;27;20075;-67
2023/01/21 07:40:40;;;;;;;4.57;3.70;;;-0.20;99.90;;;;;;5116904;27;20059;-69
2023/01/21 07:43:09;;;;;;;9.77;3.40;;;-0.20;99.90;;;;;;5115179;27;20048;-67
2023/01/21 07:45:37;;;;;;;3.80;3.30;;;-0.20;99.90;;;;;;5109521;28;20397;-70
2023/01/21 07:48:05;;;;;;;7.43;3.80;;;-0.20;99.90;;;;;;5092973;28;20146;-68
2023/01/21 07:50:34;;;;;;;9.77;4.07;;;-0.10;99.90;;;;;;5094596;28;20052;-68
2023/01/21 07:53:03;;;;;;;7.50;3.80;;;-0.10;99.90;;;;;;5100848;28;20052;-72
2023/01/21 07:55:31;;;;;;;4.40;3.72;;;0.00;99.90;;;;;;5101566;28;20105;-77
2023/01/21 07:57:59;;;;;;;7.30;3.92;;;0.10;99.90;;;;;;5107719;28;20059;-69
2023/01/21 08:00:28;;;;;;;7.18;3.65;;;0.20;99.90;;;;;;5107331;28;20051;-67
2023/01/21 08:02:56;;;;;;;4.70;3.75;;;0.20;99.90;;;;;;5104085;27;20047;-69
2023/01/21 08:05:25;;;;;;;7.30;4.28;;;0.10;99.90;;;;;;5105902;28;20530;-73
2023/01/21 08:07:58;;;;;;;4.60;3.90;;;0.20;99.90;;;;;;5110918;28;20051;-74
2023/01/21 08:10:27;;;;;;;10.18;4.85;;;0.30;99.90;;;;;;5115997;27;20121;-75
2023/01/21 08:12:55;;;;;;;8.45;4.57;;;0.30;99.90;;;;;;5118552;27;20750;-75
2023/01/21 08:15:25;;;;;;;12.77;5.90;;;0.30;99.90;;;;;;5098253;28;20079;-70
2023/01/21 08:17:53;;;;;;;9.13;6.53;;;0.30;99.90;;;;;;5112302;28;20070;-70
2023/01/21 08:20:20;;;;;;;13.30;7.20;;;0.30;99.90;;;;;;5113053;28;20051;-75
2023/01/21 08:22:48;;;;;;;13.65;7.25;;;0.30;99.90;;;;;;5110287;28;20092;-75
2023/01/21 08:25:17;;;;;;;11.95;6.30;;;0.30;99.90;;;;;;5112119;28;20044;-74
2023/01/21 08:27:50;;;;;;;8.77;5.05;;;0.30;99.90;;;;;;5128626;27;20048;-76
2023/01/21 08:30:27;;;;;;;8.70;4.83;;;0.30;99.90;;;;;;5085486;28;20048;-75
2023/01/21 08:32:54;;;;;;;9.75;6.05;;;0.30;99.90;;;;;;5107761;28;20067;-75
2023/01/21 08:35:22;;;;;;;8.07;5.38;;;0.40;99.90;;;;;;5113401;28;20082;-76
2023/01/21 08:37:56;;;;;;;7.88;4.93;;;0.40;99.90;;;;;;5112665;28;20054;-73
2023/01/21 08:40:25;;;;;;;7.50;5.25;;;0.30;99.90;;;;;;5112303;28;20130;-76
2023/01/21 08:42:52;;;;;;;9.45;6.00;;;0.40;99.90;;;;;;5092275;28;20048;-73
2023/01/21 08:45:20;;;;;;;12.30;6.97;;;0.40;99.90;;;;;;5092940;28;20047;-73
2023/01/21 08:47:47;;;;;;;12.55;6.35;;;0.50;99.90;;;;;;5088711;28;20064;-74
2023/01/21 08:50:15;;;;;;;10.05;6.47;;;0.50;99.90;;;;;;5093495;28;20044;-75
2023/01/21 08:52:42;;;;;;;11.65;7.70;;;0.50;99.90;;;;;;5097094;27;20047;-75
2023/01/21 08:55:10;;;;;;;13.68;7.07;;;0.50;99.90;;;;;;5103870;28;20070;-73
2023/01/21 08:57:38;;;;;;;15.88;7.45;;;0.60;99.90;;;;;;5113090;28;20139;-74
2023/01/21 09:00:08;;;;;;;11.35;7.35;;;0.60;99.90;;;;;;5106095;28;20050;-73
2023/01/21 09:02:38;;;;;;;12.45;8.13;;;0.80;99.90;;;;;;5101226;28;20122;-75
2023/01/21 09:05:11;;;;;;;13.20;6.32;;;1.70;99.90;;;;;;5102994;28;20047;-68
2023/01/21 09:07:39;;;;;;;11.40;6.28;;;3.10;99.90;;;;;;5101545;28;20052;-75
2023/01/21 09:10:08;;;;;;;11.52;6.10;;;4.40;99.90;;;;;;5113723;28;20445;-76
2023/01/21 09:12:37;;;;;;;11.85;5.30;;;5.00;99.90;;;;;;5111553;28;20044;-69
2023/01/21 09:15:06;;;;;;;9.27;5.38;;;5.60;99.90;;;;;;5080346;28;20048;-71
2023/01/21 09:17:37;;;;;;;8.82;5.40;;;6.30;99.90;;;;;;5110669;28;20048;-75
2023/01/21 09:20:06;;;;;;;12.68;6.90;;;6.80;99.90;;;;;;5100115;28;20044;-74
2023/01/21 09:22:35;;;;;;;9.52;5.22;;;7.30;99.90;;;;;;5104105;28;20050;-75
2023/01/21 09:25:09;;;;;;;9.20;5.03;;;7.70;99.90;;;;;;5094695;28;20044;-74
2023/01/21 09:27:37;;;;;;;8.02;5.63;;;8.10;99.90;;;;;;5114705;27;20142;-75
2023/01/21 09:30:06;;;;;;;8.20;5.50;;;8.60;99.90;;;;;;5104650;28;20040;-74
2023/01/21 09:32:34;;;;;;;8.55;4.53;;;8.80;99.90;;;;;;5109136;27;20056;-75
2023/01/21 09:35:01;;;;;;;11.00;5.35;;;9.30;99.90;;;;;;5108801;28;20054;-76
2023/01/21 09:37:33;;;;;;;8.75;4.88;;;9.50;99.90;;;;;;5112790;28;20047;-69
2023/01/21 09:40:01;;;;;;;9.15;5.15;;;9.60;99.90;;;;;;5102452;27;20124;-68
2023/01/21 09:42:32;;;;;;;7.95;4.70;;;9.60;99.90;;;;;;5103395;28;20047;-69
2023/01/21 09:45:03;;;;;;;8.13;4.75;;;9.50;98.60;;;;;;5105335;27;20129;-67
2023/01/21 09:47:35;;;;;;;8.27;4.85;;;9.40;98.10;;;;;;5103649;28;20047;-68
2023/01/21 09:50:12;;;;;;;10.07;5.38;;;9.10;98.80;;;;;;5114813;27;20458;-68
2023/01/21 09:52:43;;;;;;;8.23;5.65;;;9.00;98.60;;;;;;5104749;28;20066;-68
2023/01/21 09:55:19;;;;;;;7.30;4.50;;;8.80;98.60;;;;;;5098677;28;20466;-69
2023/01/21 09:58:09;;;;;;;6.78;5.07;;;8.60;99.20;;;;;;5097381;28;20073;-77
2023/01/21 10:00:45;;;;;;;8.93;4.97;;;8.40;98.90;;;;;;5103819;28;20063;-75
2023/01/21 10:03:24;;;;;;;7.50;4.82;;;7.80;99.20;;;;;;5103118;28;20047;-76
2023/01/21 10:06:15;;;;;;;10.20;5.15;;;7.30;99.90;;;;;;5093226;28;20043;-75
2023/01/21 10:09:13;;;;;;;9.98;5.47;;;7.40;99.90;;;;;;5121180;27;20065;-75
2023/01/21 10:12:05;;;;;;;7.85;4.85;;;7.50;99.90;;;;;;5092222;28;20080;-75
2023/01/21 10:15:13;;;;;;;8.48;4.72;;;7.60;99.90;;;;;;5096392;28;20638;-75
2023/01/21 10:17:54;;;;;;;9.38;5.05;;;6.80;99.90;;;;;;5092489;28;20048;-69
2023/01/21 10:20:28;;;;;;;8.00;5.10;;;6.50;99.90;;;;;;5109650;28;20043;-71
2023/01/21 10:23:02;;;;;;;9.85;5.30;;;6.80;99.90;;;;;;5105783;28;20047;-75
2023/01/21 10:25:32;;;;;;;19.30;11.27;;;7.10;99.90;;;;;;5093393;28;20047;-76
2023/01/21 10:28:05;;;;;;;13.13;7.40;;;7.50;99.90;;;;;;5109611;28;20538;-74
2023/01/21 10:30:39;;;;;;;13.52;6.63;;;7.90;99.90;;;;;;5105298;28;20322;-76
2023/01/21 10:33:18;;;;;;;12.70;6.18;;;8.10;99.90;;;;;;5108688;28;20302;-69
2023/01/21 10:36:05;;;;;;;12.82;6.20;;;8.30;99.90;;;;;;5090111;28;20059;-69
2023/01/21 10:38:40;;;;;;;10.52;6.07;;;8.90;99.50;;;;;;5098873;28;20090;-70
2023/01/21 10:41:30;;;;;;;10.18;5.93;;;9.70;97.10;;;;;;5108865;28;20465;-72
2023/01/21 10:44:07;;;;;;;14.32;5.75;;;10.30;95.30;;;;;;5103237;28;20048;-72
2023/01/21 10:46:44;;;;;;;11.20;6.40;;;10.80;92.30;;;;;;5088315;28;20415;-69
2023/01/21 10:49:32;;;;;;;12.57;5.85;;;10.90;91.10;;;;;;5106777;28;20478;-75
2023/01/21 10:52:06;;;;;;;9.38;5.30;;;10.90;90.40;;;;;;5106590;28;20090;-76
2023/01/21 10:54:47;;;;;;;7.75;5.07;;;11.00;90.10;;;;;;5101011;28;20079;-77
2023/01/21 10:57:39;;;;;;;10.13;5.40;;;11.30;87.80;;;;;;5089768;28;20040;-76
2023/01/21 11:00:19;;;;;;;14.27;5.15;;;11.50;86.30;;;;;;5095264;28;20063;-75
2023/01/21 11:02:50;;;;;;;8.93;5.50;;;11.60;84.40;;;;;;5104660;27;20101;-76
2023/01/21 11:05:20;;;;;;;8.70;5.07;;;11.60;83.60;;;;;;5095893;28;20290;-74
2023/01/21 11:07:49;;;;;;;9.95;6.50;;;11.40;83.20;;;;;;5096269;28;20143;-69
2023/01/21 11:10:23;;;;;;;8.82;5.30;;;11.10;82.40;;;;;;5101406;28;20039;-71
2023/01/21 11:12:51;;;;;;;12.90;6.47;;;9.80;84.80;;;;;;5105638;28;20048;-70
2023/01/21 11:15:20;;;;;;;12.25;5.47;;;8.30;89.70;;;;;;5100864;28;20522;-68
2023/01/21 11:17:52;;;;;;;9.40;5.60;;;7.20;92.10;;;;;;5104133;28;20047;-70
2023/01/21 11:20:32;;;;;;;7.95;5.13;;;6.30;95.40;;;;;;5086956;28;20093;-68
2023/01/21 11:23:03;;;;;;;11.93;5.55;;;5.50;98.90;;;;;;5119588;28;20043;-69
2023/01/21 11:25:40;;;;;;;14.88;5.38;;;5.00;99.90;;;;;;5108116;28;20040;-70
2023/01/21 11:28:23;;;;;;;6.70;4.47;;;4.50;99.90;;;;;;5110786;28;20052;-70
2023/01/21 11:31:04;;;;;;;;;;;4.20;99.90;;;;;;5110529;28;20549;-69
2023/01/21 11:33:31;;;;;;;11.60;5.07;;;4.00;99.90;;;;;;5106716;28;20379;-68
2023/01/21 11:36:12;;;;;;;10.02;4.70;;;3.70;99.90;;;;;;5105885;28;20059;-70
2023/01/21 11:38:40;;;;;;;11.18;5.45;;;3.50;99.90;;;;;;5104980;28;20129;-68
2023/01/21 11:41:18;;;;;;;11.40;5.50;;;3.60;99.90;;;;;;5100335;28;20146;-69
2023/01/21 11:43:48;;;;;;;10.70;4.63;;;4.40;99.90;;;;;;5107864;28;20067;-69
2023/01/21 11:46:36;;;;;;;10.43;5.72;;;5.30;99.90;;;;;;5098035;28;20048;-72
2023/01/21 11:49:32;;;;;;;13.13;5.90;;;5.30;99.90;;;;;;5107552;28;20044;-70
2023/01/21 11:52:19;;;;;;;10.00;5.43;;;4.90;99.90;;;;;;5107073;28;20054;-70
2023/01/21 11:54:48;;;;;;;13.45;7.63;;;4.40;99.90;;;;;;5109599;28;20116;-72
2023/01/21 11:57:30;;;;;;;8.00;4.75;;;3.90;99.90;;;;;;5098705;28;20078;-68
2023/01/21 12:00:09;;;;;;;10.20;5.95;;;3.60;99.90;;;;;;5108981;27;20108;-69
2023/01/21 12:02:47;;;;;;;11.32;5.70;;;3.40;99.90;;;;;;5099238;28;20044;-70
2023/01/21 12:05:19;;;;;;;;;;;4.00;99.90;;;;;;5110202;28;20059;-69
2023/01/21 12:07:51;;;;;;;10.18;5.78;;;5.20;99.90;;;;;;5094375;28;19924;-68
2023/01/21 12:10:27;;;;;;;12.47;5.67;;;6.20;99.90;;;;;;5107267;28;20043;-69
2023/01/21 12:13:15;;;;;;;9.10;5.75;;;6.40;99.90;;;;;;5112941;28;20582;-68
2023/01/21 12:16:18;;;;;;;11.85;6.47;;;6.60;99.90;;;;;;5105538;28;20055;-70
2023/01/21 12:19:36;;;;;;;11.27;6.63;;;6.70;99.90;;;;;;5110350;28;20071;-70
2023/01/21 12:22:35;;;;;;;10.48;6.80;;;6.70;99.90;;;;;;5080628;28;20040;-69
2023/01/21 12:25:37;;;;;;;10.40;5.85;;;6.40;99.90;;;;;;5099795;28;20482;-68
2023/01/21 12:28:19;;;;;;;9.13;6.30;;;6.20;99.90;;;;;;5106539;28;20097;-69
2023/01/21 12:31:01;;;;;;;12.48;6.50;;;6.00;99.90;;;;;;5104537;28;20051;-68
2023/01/21 12:33:48;;;;;;;10.73;5.93;;;5.50;99.90;;;;;;5091136;28;20471;-70
2023/01/21 12:36:22;;;;;;;13.25;6.38;;;4.90;99.90;;;;;;5108148;28;20075;-70
2023/01/21 12:39:04;;;;;;;13.55;6.95;;;4.30;99.90;;;;;;5105583;28;20100;-70
2023/01/21 12:41:34;;;;;;;18.20;6.97;;;3.90;99.90;;;;;;5100401;28;20368;-70
2023/01/21 12:44:26;;;;;;;14.60;6.45;;;3.60;99.90;;;;;;5101057;28;20055;-75
2023/01/21 12:46:58;;;;;;;11.90;6.63;;;3.30;99.90;;;;;;5103614;28;20101;-75
2023/01/21 12:49:32;;;;;;;15.05;7.05;;;3.10;99.90;;;;;;5099615;28;20051;-68
2023/01/21 12:52:05;;;;;;;25.80;7.28;;;2.90;99.90;;;;;;5101529;28;20044;-70
2023/01/21 12:54:43;;;;;;;14.02;6.65;;;2.70;99.90;;;;;;5100469;28;20111;-75
2023/01/21 12:57:31;;;;;;;15.38;7.65;;;2.60;99.90;;;;;;5106623;28;20128;-75
2023/01/21 13:00:09;;;;;;;14.13;7.15;;;2.40;99.90;;;;;;5099406;28;20134;-76
2023/01/21 13:02:47;;;;;;;40.70;9.10;;;2.40;99.90;;;;;;5096451;28;20056;-76
2023/01/21 13:05:22;;;;;;;19.95;7.22;;;2.30;99.90;;;;;;5098973;28;20101;-73
2023/01/21 13:07:55;;;;;;;15.60;7.10;;;2.20;99.90;;;;;;5095973;28;20048;-74
2023/01/21 13:10:29;;;;;;;16.08;7.70;;;2.00;99.90;;;;;;5098997;28;20131;-73
2023/01/21 13:13:04;;;;;;;13.07;8.02;;;2.00;99.90;;;;;;5095588;28;20035;-74
2023/01/21 13:15:35;;;;;;;15.88;8.80;;;1.90;99.90;;;;;;5085046;27;20056;-74
2023/01/21 13:18:11;;;;;;;15.25;8.45;;;1.80;99.90;;;;;;5107145;27;20113;-75
2023/01/21 13:20:53;;;;;;;20.20;8.82;;;1.80;99.90;;;;;;5101662;28;20150;-75